sensor_id;sensor_type;location;lat;lon;timestamp;pressure;altitude;pressure_sealevel;temperature;humidity
43312;BME280;30041;48.300;16.352;2023-08-06T00:00:04;98574.81;;;22.97;58.70
43312;BME280;30041;48.300;16.352;2023-08-06T00:02:30;98575.88;;;22.96;59.14
43312;BME280;30041;48.300;16.352;2023-08-06T00:04:55;98567.22;;;22.94;59.30
43312;BME280;30041;48.300;16.352;2023-08-06T00:07:21;98570.72;;;22.95;58.60
43312;BME280;30041;48.300;16.352;2023-08-06T00:09:46;98558.31;;;22.94;58.92
43312;BME280;30041;48.300;16.352;2023-08-06T00:12:12;98565.63;;;22.93;58.99
43312;BME280;30041;48.300;16.352;2023-08-06T00:14:37;98557.53;;;22.93;59.06
43312;BME280;30041;48.300;16.352;2023-08-06T00:17:03;98545.06;;;22.92;59.09
43312;BME280;30041;48.300;16.352;2023-08-06T00:19:28;98558.88;;;22.91;58.85
43312;BME280;30041;48.300;16.352;2023-08-06T00:21:54;98550.47;;;22.92;58.67
43312;BME280;30041;48.300;16.352;2023-08-06T00:24:19;98559.69;;;22.91;59.14
43312;BME280;30041;48.300;16.352;2023-08-06T00:26:45;98563.44;;;22.90;58.91
43312;BME280;30041;48.300;16.352;2023-08-06T00:29:10;98572.66;;;22.89;59.12
43312;BME280;30041;48.300;16.352;2023-08-06T00:31:36;98562.91;;;22.88;58.65
43312;BME280;30041;48.300;16.352;2023-08-06T00:34:01;98569.94;;;22.89;58.81
43312;BME280;30041;48.300;16.352;2023-08-06T00:36:26;98562.66;;;22.90;58.69
43312;BME280;30041;48.300;16.352;2023-08-06T00:38:52;98560.22;;;22.88;58.67
43312;BME280;30041;48.300;16.352;2023-08-06T00:41:17;98554.81;;;22.88;58.70
43312;BME280;30041;48.300;16.352;2023-08-06T00:43:43;98550.50;;;22.87;58.63
43312;BME280;30041;48.300;16.352;2023-08-06T00:46:08;98545.09;;;22.87;58.88
43312;BME280;30041;48.300;16.352;2023-08-06T00:48:34;98553.19;;;22.87;58.89
43312;BME280;30041;48.300;16.352;2023-08-06T00:51:01;98555.91;;;22.87;58.79
43312;BME280;30041;48.300;16.352;2023-08-06T00:53:26;98554.25;;;22.86;58.80
43312;BME280;30041;48.300;16.352;2023-08-06T00:55:52;98550.75;;;22.86;58.60
43312;BME280;30041;48.300;16.352;2023-08-06T00:58:18;98546.44;;;22.85;58.78
43312;BME280;30041;48.300;16.352;2023-08-06T01:00:44;98539.16;;;22.85;58.53
43312;BME280;30041;48.300;16.352;2023-08-06T01:03:09;98542.94;;;22.84;58.74
43312;BME280;30041;48.300;16.352;2023-08-06T01:05:35;98536.44;;;22.85;58.74
43312;BME280;30041;48.300;16.352;2023-08-06T01:10:49;98532.16;;;22.84;58.25
43312;BME280;30041;48.300;16.352;2023-08-06T01:13:41;98524.03;;;22.84;58.09
43312;BME280;30041;48.300;16.352;2023-08-06T01:16:07;98518.91;;;22.83;58.27
43312;BME280;30041;48.300;16.352;2023-08-06T01:18:34;98522.66;;;22.82;58.35
43312;BME280;30041;48.300;16.352;2023-08-06T01:21:00;98519.72;;;22.83;58.48
43312;BME280;30041;48.300;16.352;2023-08-06T01:23:25;98529.44;;;22.84;58.48
43312;BME280;30041;48.300;16.352;2023-08-06T01:26:01;98505.13;;;22.84;58.54
43312;BME280;30041;48.300;16.352;2023-08-06T01:31:31;98508.09;;;22.83;58.30
43312;BME280;30041;48.300;16.352;2023-08-06T01:33:59;98494.59;;;22.83;57.93
43312;BME280;30041;48.300;16.352;2023-08-06T01:36:26;98489.44;;;22.81;58.48
43312;BME280;30041;48.300;16.352;2023-08-06T01:38:53;98503.75;;;22.82;57.99
43312;BME280;30041;48.300;16.352;2023-08-06T01:41:18;98504.31;;;22.84;57.93
43312;BME280;30041;48.300;16.352;2023-08-06T01:43:44;98491.09;;;22.82;57.73
43312;BME280;30041;48.300;16.352;2023-08-06T01:46:09;98490.00;;;22.83;58.05
43312;BME280;30041;48.300;16.352;2023-08-06T01:48:35;98488.66;;;22.80;57.99
43312;BME280;30041;48.300;16.352;2023-08-06T01:51:01;98490.25;;;22.82;57.91
43312;BME280;30041;48.300;16.352;2023-08-06T01:53:26;98485.94;;;22.80;57.79
43312;BME280;30041;48.300;16.352;2023-08-06T01:55:51;98488.66;;;22.80;57.95
43312;BME280;30041;48.300;16.352;2023-08-06T01:58:17;98493.25;;;22.80;58.00
43312;BME280;30041;48.300;16.352;2023-08-06T02:00:42;98487.03;;;22.79;57.61
43312;BME280;30041;48.300;16.352;2023-08-06T02:03:08;98492.44;;;22.79;58.07
43312;BME280;30041;48.300;16.352;2023-08-06T02:05:33;98474.59;;;22.78;57.95
43312;BME280;30041;48.300;16.352;2023-08-06T02:07:59;98465.69;;;22.78;57.68
43312;BME280;30041;48.300;16.352;2023-08-06T02:10:25;98466.50;;;22.78;57.47
43312;BME280;30041;48.300;16.352;2023-08-06T02:12:50;98477.31;;;22.78;58.02
43312;BME280;30041;48.300;16.352;2023-08-06T02:15:15;98466.75;;;22.77;57.50
43312;BME280;30041;48.300;16.352;2023-08-06T02:17:41;98456.78;;;22.77;57.58
43312;BME280;30041;48.300;16.352;2023-08-06T02:20:07;98457.59;;;22.78;57.67
43312;BME280;30041;48.300;16.352;2023-08-06T02:22:32;98455.16;;;22.76;57.90
43312;BME280;30041;48.300;16.352;2023-08-06T02:24:58;98462.47;;;22.76;57.85
43312;BME280;30041;48.300;16.352;2023-08-06T02:27:23;98458.13;;;22.75;58.00
43312;BME280;30041;48.300;16.352;2023-08-06T02:29:49;98448.97;;;22.76;57.73
43312;BME280;30041;48.300;16.352;2023-08-06T02:32:14;98444.63;;;22.75;57.99
43312;BME280;30041;48.300;16.352;2023-08-06T02:34:40;98441.91;;;22.75;57.61
43312;BME280;30041;48.300;16.352;2023-08-06T02:37:05;98444.63;;;22.75;57.40
43312;BME280;30041;48.300;16.352;2023-08-06T02:39:31;98447.84;;;22.77;57.57
43312;BME280;30041;48.300;16.352;2023-08-06T02:41:56;98437.06;;;22.77;57.25
43312;BME280;30041;48.300;16.352;2023-08-06T02:44:21;98430.06;;;22.76;57.17
43312;BME280;30041;48.300;16.352;2023-08-06T02:46:47;98426.53;;;22.75;57.58
43312;BME280;30041;48.300;16.352;2023-08-06T02:49:12;98424.66;;;22.76;57.51
43312;BME280;30041;48.300;16.352;2023-08-06T02:51:38;98413.31;;;22.74;57.47
43312;BME280;30041;48.300;16.352;2023-08-06T02:54:03;98419.50;;;22.74;57.56
43312;BME280;30041;48.300;16.352;2023-08-06T02:56:29;98424.13;;;22.74;57.28
43312;BME280;30041;48.300;16.352;2023-08-06T02:58:54;98403.59;;;22.73;57.57
43312;BME280;30041;48.300;16.352;2023-08-06T03:01:20;98416.81;;;22.74;57.32
43312;BME280;30041;48.300;16.352;2023-08-06T03:03:45;98422.50;;;22.73;57.24
43312;BME280;30041;48.300;16.352;2023-08-06T03:06:11;98413.56;;;22.72;57.36
43312;BME280;30041;48.300;16.352;2023-08-06T03:08:36;98421.97;;;22.71;57.37
43312;BME280;30041;48.300;16.352;2023-08-06T03:11:02;98420.06;;;22.71;57.13
43312;BME280;30041;48.300;16.352;2023-08-06T03:13:27;98425.47;;;22.71;57.28
43312;BME280;30041;48.300;16.352;2023-08-06T03:15:57;98430.88;;;22.71;57.58
43312;BME280;30041;48.300;16.352;2023-08-06T03:18:23;98440.03;;;22.70;57.34
43312;BME280;30041;48.300;16.352;2023-08-06T03:20:49;98427.38;;;22.71;57.25
43312;BME280;30041;48.300;16.352;2023-08-06T03:23:15;98434.38;;;22.72;57.19
43312;BME280;30041;48.300;16.352;2023-08-06T03:25:40;98426.53;;;22.70;57.23
43312;BME280;30041;48.300;16.352;2023-08-06T03:28:06;98433.03;;;22.69;57.35
43312;BME280;30041;48.300;16.352;2023-08-06T03:30:31;98435.47;;;22.71;56.90
43312;BME280;30041;48.300;16.352;2023-08-06T03:32:57;98429.25;;;22.70;56.90
43312;BME280;30041;48.300;16.352;2023-08-06T03:35:22;98425.75;;;22.70;57.03
43312;BME280;30041;48.300;16.352;2023-08-06T03:37:48;98426.53;;;22.70;56.71
43312;BME280;30041;48.300;16.352;2023-08-06T03:40:13;98433.56;;;22.71;56.98
43312;BME280;30041;48.300;16.352;2023-08-06T03:42:39;98421.97;;;22.71;56.97
43312;BME280;30041;48.300;16.352;2023-08-06T03:45:05;98415.19;;;22.68;56.73
43312;BME280;30041;48.300;16.352;2023-08-06T03:47:30;98413.34;;;22.69;56.55
43312;BME280;30041;48.300;16.352;2023-08-06T03:49:56;98410.91;;;22.67;56.80
43312;BME280;30041;48.300;16.352;2023-08-06T03:52:21;98401.44;;;22.70;56.47
43312;BME280;30041;48.300;16.352;2023-08-06T03:54:47;98416.03;;;22.69;56.66
43312;BME280;30041;48.300;16.352;2023-08-06T03:57:12;98402.78;;;22.67;56.68
43312;BME280;30041;48.300;16.352;2023-08-06T03:59:38;98410.63;;;22.69;56.51
43312;BME280;30041;48.300;16.352;2023-08-06T04:02:03;98410.09;;;22.67;56.40
43312;BME280;30041;48.300;16.352;2023-08-06T04:04:29;98409.00;;;22.68;56.48
43312;BME280;30041;48.300;16.352;2023-08-06T04:06:54;98415.50;;;22.67;56.26
43312;BME280;30041;48.300;16.352;2023-08-06T04:09:20;98413.59;;;22.67;56.60
43312;BME280;30041;48.300;16.352;2023-08-06T04:11:45;98421.44;;;22.69;56.47
43312;BME280;30041;48.300;16.352;2023-08-06T04:14:11;98420.09;;;22.66;56.35
43312;BME280;30041;48.300;16.352;2023-08-06T04:16:36;98412.00;;;22.66;56.46
43312;BME280;30041;48.300;16.352;2023-08-06T04:19:02;98415.50;;;22.67;56.35
43312;BME280;30041;48.300;16.352;2023-08-06T04:21:27;98403.91;;;22.66;56.26
43312;BME280;30041;48.300;16.352;2023-08-06T04:23:53;98409.56;;;22.65;56.54
43312;BME280;30041;48.300;16.352;2023-08-06T04:26:18;98403.91;;;22.66;56.50
43312;BME280;30041;48.300;16.352;2023-08-06T04:28:44;98403.06;;;22.66;56.50
43312;BME280;30041;48.300;16.352;2023-08-06T04:31:09;98409.56;;;22.65;56.63
43312;BME280;30041;48.300;16.352;2023-08-06T04:33:35;98401.19;;;22.66;56.40
43312;BME280;30041;48.300;16.352;2023-08-06T04:36:03;98391.19;;;22.67;56.26
43312;BME280;30041;48.300;16.352;2023-08-06T04:38:28;98394.97;;;22.66;56.39
43312;BME280;30041;48.300;16.352;2023-08-06T04:40:54;98392.25;;;22.66;56.32
43312;BME280;30041;48.300;16.352;2023-08-06T04:43:19;98389.84;;;22.64;56.12
43312;BME280;30041;48.300;16.352;2023-08-06T04:45:52;98391.47;;;22.65;56.34
43312;BME280;30041;48.300;16.352;2023-08-06T04:48:18;98387.16;;;22.64;56.18
43312;BME280;30041;48.300;16.352;2023-08-06T04:50:47;98397.13;;;22.64;56.11
43312;BME280;30041;48.300;16.352;2023-08-06T04:53:13;98387.41;;;22.63;56.29
43312;BME280;30041;48.300;16.352;2023-08-06T04:55:39;98385.25;;;22.65;56.13
43312;BME280;30041;48.300;16.352;2023-08-06T04:58:05;98386.31;;;22.64;56.25
43312;BME280;30041;48.300;16.352;2023-08-06T05:00:31;98372.28;;;22.62;56.47
43312;BME280;30041;48.300;16.352;2023-08-06T05:02:56;98373.91;;;22.63;56.06
43312;BME280;30041;48.300;16.352;2023-08-06T05:05:22;98384.19;;;22.61;56.07
43312;BME280;30041;48.300;16.352;2023-08-06T05:07:49;98388.50;;;22.62;56.21
43312;BME280;30041;48.300;16.352;2023-08-06T05:10:18;98382.81;;;22.63;55.71
43312;BME280;30041;48.300;16.352;2023-08-06T05:12:43;98389.31;;;22.62;55.98
43312;BME280;30041;48.300;16.352;2023-08-06T05:15:09;98380.13;;;22.63;56.03
43312;BME280;30041;48.300;16.352;2023-08-06T05:17:34;98380.38;;;22.62;56.14
43312;BME280;30041;48.300;16.352;2023-08-06T05:20:00;98390.13;;;22.63;56.15
43312;BME280;30041;48.300;16.352;2023-08-06T05:22:25;98392.81;;;22.63;55.97
43312;BME280;30041;48.300;16.352;2023-08-06T05:24:51;98392.81;;;22.63;55.98
43312;BME280;30041;48.300;16.352;2023-08-06T05:27:16;98379.31;;;22.63;55.80
43312;BME280;30041;48.300;16.352;2023-08-06T05:29:42;98397.13;;;22.64;55.93
43312;BME280;30041;48.300;16.352;2023-08-06T05:32:07;98386.63;;;22.62;55.82
43312;BME280;30041;48.300;16.352;2023-08-06T05:34:33;98392.81;;;22.63;55.98
43312;BME280;30041;48.300;16.352;2023-08-06T05:36:58;98410.09;;;22.62;56.12
43312;BME280;30041;48.300;16.352;2023-08-06T05:39:24;98401.19;;;22.61;55.66
43312;BME280;30041;48.300;16.352;2023-08-06T05:41:49;98383.38;;;22.60;55.75
43312;BME280;30041;48.300;16.352;2023-08-06T05:44:15;98392.03;;;22.62;55.41
43312;BME280;30041;48.300;16.352;2023-08-06T05:46:40;98396.59;;;22.62;55.88
43312;BME280;30041;48.300;16.352;2023-08-06T05:49:06;98392.81;;;22.63;55.59
43312;BME280;30041;48.300;16.352;2023-08-06T05:51:31;98394.97;;;22.66;55.69
43312;BME280;30041;48.300;16.352;2023-08-06T05:53:57;98392.31;;;22.50;53.94
43312;BME280;30041;48.300;16.352;2023-08-06T05:56:22;98392.34;;;22.40;54.57
43312;BME280;30041;48.300;16.352;2023-08-06T05:58:48;98385.31;;;22.44;55.00
43312;BME280;30041;48.300;16.352;2023-08-06T06:01:13;98396.91;;;22.50;55.29
43312;BME280;30041;48.300;16.352;2023-08-06T06:03:39;98391.25;;;22.51;54.89
43312;BME280;30041;48.300;16.352;2023-08-06T06:06:04;98393.91;;;22.56;55.07
43312;BME280;30041;48.300;16.352;2023-08-06T06:08:30;98405.25;;;22.58;55.21
43312;BME280;30041;48.300;16.352;2023-08-06T06:10:55;98388.25;;;22.58;55.06
43312;BME280;30041;48.300;16.352;2023-08-06T06:13:21;98402.81;;;22.57;55.02
43312;BME280;30041;48.300;16.352;2023-08-06T06:15:47;98411.75;;;22.57;54.75
43312;BME280;30041;48.300;16.352;2023-08-06T06:18:13;98425.25;;;22.57;54.77
43312;BME280;30041;48.300;16.352;2023-08-06T06:20:39;98419.56;;;22.59;54.89
43312;BME280;30041;48.300;16.352;2023-08-06T06:23:04;98435.75;;;22.59;54.96
43312;BME280;30041;48.300;16.352;2023-08-06T06:25:30;98446.28;;;22.61;54.93
43312;BME280;30041;48.300;16.352;2023-08-06T06:27:55;98444.69;;;22.59;55.21
43312;BME280;30041;48.300;16.352;2023-08-06T06:30:20;98435.75;;;22.59;55.01
43312;BME280;30041;48.300;16.352;2023-08-06T06:32:46;98444.69;;;22.59;54.91
43312;BME280;30041;48.300;16.352;2023-08-06T06:35:12;98450.09;;;22.59;54.76
43312;BME280;30041;48.300;16.352;2023-08-06T06:37:37;98454.66;;;22.59;55.08
43312;BME280;30041;48.300;16.352;2023-08-06T06:40:03;98450.91;;;22.60;55.07
43312;BME280;30041;48.300;16.352;2023-08-06T06:42:29;98446.28;;;22.61;55.67
43312;BME280;30041;48.300;16.352;2023-08-06T06:44:54;98443.31;;;22.62;55.45
43312;BME280;30041;48.300;16.352;2023-08-06T06:47:20;98429.28;;;22.60;55.45
43312;BME280;30041;48.300;16.352;2023-08-06T06:49:45;98443.84;;;22.59;55.46
43312;BME280;30041;48.300;16.352;2023-08-06T06:52:11;98436.84;;;22.58;55.31
43312;BME280;30041;48.300;16.352;2023-08-06T06:54:37;98442.25;;;22.58;55.31
43312;BME280;30041;48.300;16.352;2023-08-06T06:57:02;98441.44;;;22.57;55.20
43312;BME280;30041;48.300;16.352;2023-08-06T06:59:28;98428.50;;;22.59;55.22
43312;BME280;30041;48.300;16.352;2023-08-06T07:01:53;98430.38;;;22.64;55.18
43312;BME280;30041;48.300;16.352;2023-08-06T07:04:19;98432.53;;;22.62;55.31
43312;BME280;30041;48.300;16.352;2023-08-06T07:06:44;98430.09;;;22.61;55.23
43312;BME280;30041;48.300;16.352;2023-08-06T07:09:09;98437.94;;;22.62;55.42
43312;BME280;30041;48.300;16.352;2023-08-06T07:11:35;98433.31;;;22.63;55.48
43312;BME280;30041;48.300;16.352;2023-08-06T07:14:01;98425.22;;;22.63;55.63
43312;BME280;30041;48.300;16.352;2023-08-06T07:16:26;98437.63;;;22.64;55.22
43312;BME280;30041;48.300;16.352;2023-08-06T07:18:53;98435.75;;;22.64;55.55
43312;BME280;30041;48.300;16.352;2023-08-06T07:21:18;98439.81;;;22.67;55.88
43312;BME280;30041;48.300;16.352;2023-08-06T07:23:44;98433.59;;;22.66;55.48
43312;BME280;30041;48.300;16.352;2023-08-06T07:26:09;98440.59;;;22.67;55.82
43312;BME280;30041;48.300;16.352;2023-08-06T07:28:35;98441.94;;;22.70;55.72
43312;BME280;30041;48.300;16.352;2023-08-06T07:31:00;98449.22;;;22.79;55.66
43312;BME280;30041;48.300;16.352;2023-08-06T07:33:27;98440.56;;;22.83;55.71
43312;BME280;30041;48.300;16.352;2023-08-06T07:35:53;98433.53;;;22.82;55.17
43312;BME280;30041;48.300;16.352;2023-08-06T07:38:18;98436.53;;;22.70;55.14
43312;BME280;30041;48.300;16.352;2023-08-06T07:40:44;98432.78;;;22.66;54.88
43312;BME280;30041;48.300;16.352;2023-08-06T07:43:10;98435.25;;;22.52;55.07
43312;BME280;30041;48.300;16.352;2023-08-06T07:45:36;98433.38;;;22.37;55.62
43312;BME280;30041;48.300;16.352;2023-08-06T07:48:01;98423.94;;;22.29;55.81
43312;BME280;30041;48.300;16.352;2023-08-06T07:50:27;98433.09;;;22.38;55.93
43312;BME280;30041;48.300;16.352;2023-08-06T07:52:53;98429.59;;;22.48;55.83
43312;BME280;30041;48.300;16.352;2023-08-06T07:55:18;98416.84;;;22.59;55.86
43312;BME280;30041;48.300;16.352;2023-08-06T07:57:43;98419.81;;;22.68;55.94
43312;BME280;30041;48.300;16.352;2023-08-06T08:00:09;98413.59;;;22.67;55.87
43312;BME280;30041;48.300;16.352;2023-08-06T08:02:35;98402.78;;;22.67;55.62
43312;BME280;30041;48.300;16.352;2023-08-06T08:05:00;98400.06;;;22.72;56.12
43312;BME280;30041;48.300;16.352;2023-08-06T08:07:26;98408.16;;;22.83;55.71
43312;BME280;30041;48.300;16.352;2023-08-06T08:09:51;98411.63;;;22.88;55.32
43312;BME280;30041;48.300;16.352;2023-08-06T08:12:17;98427.00;;;22.93;55.34
43312;BME280;30041;48.300;16.352;2023-08-06T08:14:42;98424.31;;;22.93;55.53
43312;BME280;30041;48.300;16.352;2023-08-06T08:17:08;98432.13;;;22.94;55.56
43312;BME280;30041;48.300;16.352;2023-08-06T08:19:33;98435.63;;;22.95;55.26
43312;BME280;30041;48.300;16.352;2023-08-06T08:21:59;98441.59;;;22.97;55.32
43312;BME280;30041;48.300;16.352;2023-08-06T08:24:26;98441.59;;;22.97;55.63
43312;BME280;30041;48.300;16.352;2023-08-06T08:26:52;98442.13;;;22.99;55.25
43312;BME280;30041;48.300;16.352;2023-08-06T08:29:18;98430.50;;;22.98;55.11
43312;BME280;30041;48.300;16.352;2023-08-06T08:31:44;98425.66;;;23.00;55.00
43312;BME280;30041;48.300;16.352;2023-08-06T08:34:10;98426.75;;;22.99;55.24
43312;BME280;30041;48.300;16.352;2023-08-06T08:36:35;98435.38;;;23.02;55.09
43312;BME280;30041;48.300;16.352;2023-08-06T08:39:01;98422.97;;;23.00;54.81
43312;BME280;30041;48.300;16.352;2023-08-06T08:41:31;98425.41;;;23.02;55.04
43312;BME280;30041;48.300;16.352;2023-08-06T08:43:58;98422.16;;;23.00;55.06
43312;BME280;30041;48.300;16.352;2023-08-06T08:46:26;98423.50;;;23.03;54.87
43312;BME280;30041;48.300;16.352;2023-08-06T08:48:53;98453.22;;;23.03;54.80
43312;BME280;30041;48.300;16.352;2023-08-06T08:51:20;98445.91;;;23.03;54.86
43312;BME280;30041;48.300;16.352;2023-08-06T08:53:47;98449.72;;;23.02;54.80
43312;BME280;30041;48.300;16.352;2023-08-06T08:56:14;98442.41;;;23.03;54.66
43312;BME280;30041;48.300;16.352;2023-08-06T08:58:40;98435.38;;;23.07;54.64
43312;BME280;30041;48.300;16.352;2023-08-06T09:01:06;98431.84;;;23.06;54.66
43312;BME280;30041;48.300;16.352;2023-08-06T09:03:33;98428.06;;;23.07;54.43
43312;BME280;30041;48.300;16.352;2023-08-06T09:05:59;98433.47;;;23.07;54.84
43312;BME280;30041;48.300;16.352;2023-08-06T09:08:34;98437.25;;;23.06;54.75
43312;BME280;30041;48.300;16.352;2023-08-06T09:11:01;98432.13;;;23.05;54.45
43312;BME280;30041;48.300;16.352;2023-08-06T09:13:28;98433.75;;;23.06;54.22
43312;BME280;30041;48.300;16.352;2023-08-06T09:15:53;98439.69;;;23.08;54.35
43312;BME280;30041;48.300;16.352;2023-08-06T09:18:29;98450.50;;;23.08;54.41
43312;BME280;30041;48.300;16.352;2023-08-06T09:20:54;98466.47;;;23.04;54.49
43312;BME280;30041;48.300;16.352;2023-08-06T09:23:20;98465.91;;;23.07;54.68
43312;BME280;30041;48.300;16.352;2023-08-06T09:25:47;98468.03;;;23.10;54.79
43312;BME280;30041;48.300;16.352;2023-08-06T09:28:12;98466.16;;;23.11;54.58
43312;BME280;30041;48.300;16.352;2023-08-06T09:30:38;98460.75;;;23.11;54.82
43312;BME280;30041;48.300;16.352;2023-08-06T09:33:05;98461.84;;;23.10;54.33
43312;BME280;30041;48.300;16.352;2023-08-06T09:35:33;98452.94;;;23.09;54.73
43312;BME280;30041;48.300;16.352;2023-08-06T09:38:08;98460.75;;;23.11;54.59
43312;BME280;30041;48.300;16.352;2023-08-06T09:40:35;98463.47;;;23.11;54.53
43312;BME280;30041;48.300;16.352;2023-08-06T09:43:00;98465.34;;;23.10;54.38
43312;BME280;30041;48.300;16.352;2023-08-06T09:45:36;98456.97;;;23.12;54.85
43312;BME280;30041;48.300;16.352;2023-08-06T09:48:06;98458.56;;;23.13;54.48
43312;BME280;30041;48.300;16.352;2023-08-06T09:50:35;98456.97;;;23.12;54.59
43312;BME280;30041;48.300;16.352;2023-08-06T09:53:03;98448.84;;;23.12;54.32
43312;BME280;30041;48.300;16.352;2023-08-06T09:55:29;98458.06;;;23.11;54.23
43312;BME280;30041;48.300;16.352;2023-08-06T09:57:55;98463.16;;;23.12;54.53
43312;BME280;30041;48.300;16.352;2023-08-06T10:00:21;98466.16;;;23.11;54.19
43312;BME280;30041;48.300;16.352;2023-08-06T10:02:46;98462.38;;;23.12;54.37
43312;BME280;30041;48.300;16.352;2023-08-06T10:05:12;98453.16;;;23.13;53.95
43312;BME280;30041;48.300;16.352;2023-08-06T10:07:39;98458.56;;;23.13;54.38
43312;BME280;30041;48.300;16.352;2023-08-06T10:10:05;98458.31;;;23.14;53.87
43312;BME280;30041;48.300;16.352;2023-08-06T10:12:34;98458.31;;;23.14;53.91
43312;BME280;30041;48.300;16.352;2023-08-06T10:15:02;98461.00;;;23.14;53.99
43312;BME280;30041;48.300;16.352;2023-08-06T10:17:31;98465.59;;;23.14;54.21
43312;BME280;30041;48.300;16.352;2023-08-06T10:19:59;98465.59;;;23.14;53.86
43312;BME280;30041;48.300;16.352;2023-08-06T10:22:25;98471.00;;;23.14;53.69
43312;BME280;30041;48.300;16.352;2023-08-06T10:24:52;98462.91;;;23.14;53.82
43312;BME280;30041;48.300;16.352;2023-08-06T10:27:54;98481.03;;;23.13;54.11
43312;BME280;30041;48.300;16.352;2023-08-06T10:30:29;98484.53;;;23.14;53.62
43312;BME280;30041;48.300;16.352;2023-08-06T10:33:01;98498.03;;;23.14;53.67
43312;BME280;30041;48.300;16.352;2023-08-06T10:35:45;98491.53;;;23.15;53.94
43312;BME280;30041;48.300;16.352;2023-08-06T10:38:15;98488.84;;;23.15;53.61
43312;BME280;30041;48.300;16.352;2023-08-06T10:40:48;98489.66;;;23.15;53.53
43312;BME280;30041;48.300;16.352;2023-08-06T10:43:40;98495.88;;;23.16;53.66
43312;BME280;30041;48.300;16.352;2023-08-06T10:46:10;98503.72;;;23.12;53.61
43312;BME280;30041;48.300;16.352;2023-08-06T10:48:41;98494.81;;;23.12;53.52
43312;BME280;30041;48.300;16.352;2023-08-06T10:51:11;98496.41;;;23.13;53.48
43312;BME280;30041;48.300;16.352;2023-08-06T10:53:38;98488.84;;;23.15;53.37
43312;BME280;30041;48.300;16.352;2023-08-06T10:58:38;98503.44;;;23.14;53.03
43312;BME280;30041;48.300;16.352;2023-08-06T11:01:04;98500.47;;;23.15;52.92
43312;BME280;30041;48.300;16.352;2023-08-06T11:03:31;98501.81;;;23.13;53.18
43312;BME280;30041;48.300;16.352;2023-08-06T11:05:57;98501.28;;;23.16;52.57
43312;BME280;30041;48.300;16.352;2023-08-06T11:08:33;98502.63;;;23.18;52.88
43312;BME280;30041;48.300;16.352;2023-08-06T11:11:12;98504.25;;;23.14;52.75
43312;BME280;30041;48.300;16.352;2023-08-06T11:13:38;98508.56;;;23.10;52.88
43312;BME280;30041;48.300;16.352;2023-08-06T11:16:05;98512.38;;;23.09;52.93
43312;BME280;30041;48.300;16.352;2023-08-06T11:18:32;98509.38;;;23.16;53.08
43312;BME280;30041;48.300;16.352;2023-08-06T11:21:01;98512.09;;;23.16;52.82
43312;BME280;30041;48.300;16.352;2023-08-06T11:23:28;98519.09;;;23.22;52.79
43312;BME280;30041;48.300;16.352;2023-08-06T11:25:54;98515.88;;;23.20;53.13
43312;BME280;30041;48.300;16.352;2023-08-06T11:28:19;98522.56;;;23.28;52.48
43312;BME280;30041;48.300;16.352;2023-08-06T11:30:45;98518.78;;;23.34;52.50
43312;BME280;30041;48.300;16.352;2023-08-06T11:33:11;98516.63;;;23.26;53.07
43312;BME280;30041;48.300;16.352;2023-08-06T11:35:37;98520.16;;;23.21;52.74
43312;BME280;30041;48.300;16.352;2023-08-06T11:38:03;98522.91;;;23.16;52.94
43312;BME280;30041;48.300;16.352;2023-08-06T11:40:29;98536.69;;;23.14;52.97
43312;BME280;30041;48.300;16.352;2023-08-06T11:42:55;98527.22;;;23.12;53.04
43312;BME280;30041;48.300;16.352;2023-08-06T11:45:24;98540.75;;;23.12;53.50
43312;BME280;30041;48.300;16.352;2023-08-06T11:47:52;98537.25;;;23.11;53.42
43312;BME280;30041;48.300;16.352;2023-08-06T11:50:30;98541.28;;;23.14;53.58
43312;BME280;30041;48.300;16.352;2023-08-06T11:53:00;98544.53;;;23.11;53.90
43312;BME280;30041;48.300;16.352;2023-08-06T11:55:27;98550.22;;;23.09;54.24
43312;BME280;30041;48.300;16.352;2023-08-06T11:57:53;98547.25;;;23.11;54.38
43312;BME280;30041;48.300;16.352;2023-08-06T12:00:19;98545.34;;;23.11;54.06
43312;BME280;30041;48.300;16.352;2023-08-06T12:02:45;98544.53;;;23.11;54.03
43312;BME280;30041;48.300;16.352;2023-08-06T12:07:47;98542.66;;;23.11;54.08
43312;BME280;30041;48.300;16.352;2023-08-06T12:10:13;98557.22;;;23.10;53.82
43312;BME280;30041;48.300;16.352;2023-08-06T12:12:39;98553.44;;;23.11;54.25
43312;BME280;30041;48.300;16.352;2023-08-06T12:15:06;98552.91;;;23.14;53.89
43312;BME280;30041;48.300;16.352;2023-08-06T12:17:32;98551.28;;;23.13;54.14
43312;BME280;30041;48.300;16.352;2023-08-06T12:19:58;98554.25;;;23.12;54.12
43312;BME280;30041;48.300;16.352;2023-08-06T12:22:26;98557.50;;;23.14;53.80
43312;BME280;30041;48.300;16.352;2023-08-06T12:24:51;98561.53;;;23.16;54.09
43312;BME280;30041;48.300;16.352;2023-08-06T12:27:17;98555.84;;;23.13;54.05
43312;BME280;30041;48.300;16.352;2023-08-06T12:29:44;98557.50;;;23.14;53.97
43312;BME280;30041;48.300;16.352;2023-08-06T12:32:10;98560.47;;;23.12;53.94
43312;BME280;30041;48.300;16.352;2023-08-06T12:34:37;98557.75;;;23.12;53.95
43312;BME280;30041;48.300;16.352;2023-08-06T12:37:03;98557.50;;;23.14;54.00
43312;BME280;30041;48.300;16.352;2023-08-06T12:39:28;98563.97;;;23.13;53.77
43312;BME280;30041;48.300;16.352;2023-08-06T12:41:55;98562.63;;;23.15;53.99
43312;BME280;30041;48.300;16.352;2023-08-06T12:44:20;98560.75;;;23.16;53.87
43312;BME280;30041;48.300;16.352;2023-08-06T12:46:46;98561.28;;;23.18;53.80
43312;BME280;30041;48.300;16.352;2023-08-06T12:49:11;98564.78;;;23.18;53.82
43312;BME280;30041;48.300;16.352;2023-08-06T12:51:37;98562.34;;;23.17;53.74
43312;BME280;30041;48.300;16.352;2023-08-06T12:54:02;98563.72;;;23.14;53.95
43312;BME280;30041;48.300;16.352;2023-08-06T12:56:28;98566.41;;;23.14;53.85